Soummam–Abane Ramdane Airport

DAAE · Béjaïa, 阿尔及利亚

罗盘
风向 的 风向 080° Soummam Airport 8/26
风: 5 kt, 2 beaufort

5 kt

改变
0 ft 1.000 2.000 3.000 4.000 5.000
Cloud Cloud
FEW 1.600
METAR DAAE 232100Z 08005KT 9999 FEW016 23/19 Q1015

METAR Soummam Airport - DAAE/BJA

Soummam Airport是,阿尔及利亚中的中型机场。 该机场位于纬度36,71180和经度5,06987。 该机场有一条跑道: 8/26. 本场的ICAO机场代码为DAAE。 该机场的IATA代码为BJA。 机场在Alger FIR中。

该航空气象观测是针对Soummam Airport在2024年6月23日 22:00, 当地时间进行的。

机场观察

风向为080°,速度为5 kt。

可见度为10 km 或者更多。

有几云在1.600 ft的高度。 没有观察到天花板。

温度和风寒是23 °C。 露点为19 °C,相对湿度为78%。 海平面上的气压为1015 hPa (QNH)。

白天

今天,太阳从05:21升起,在20:02降落。 这适用于Soummam Airport,世界夏令时可能有所不同。 当地时间与世界标准时间之间的时差为+1 小时。 夏令时目前正在进行中。

公司介绍

我们没有关于这个机场的公司信息。

体会

到Vliegles.nl去找飞行课程,跳伞和其他飞行体验。 浏览页面,了解Soummam Airport附近所有可用的活动。 你也可以使用搜索功能来寻找你所在地附近的特定飞行课程、跳伞或其他飞行体验。

跑道

Id 标题 侧风 逆风 侧风 %
8/26 080°-260° 5 kt 0 %

逆风成分最大的方向会被突出显示,并用于横风计算。 这并不一定意味着这个方向在使用。

乌云

1.600 ft FEW 几云

温度 & 天气

温度 23 °C
露点 19 °C
相对湿度 78%
Kp-index 0 (0-9)

白天

日出
05:21 (7:09)
中午
12:42
日落
20:02

小工具

你想在你的网站上有一个关于Soummam Airport的当前航空天气(METAR)的小部件吗?

显示HTML代码
报告变更